createdAt,value
2018-04-17T00:00:42.761Z,14.13
2018-04-17T00:03:09.558Z,17.37
2018-04-17T00:05:36.339Z,13.37
2018-04-17T00:08:02.958Z,18.07
2018-04-17T00:10:33.787Z,9.30
2018-04-17T00:13:00.530Z,15.07
2018-04-17T00:15:27.240Z,10.63
2018-04-17T00:17:53.903Z,11.53
2018-04-17T00:20:23.676Z,11.43
2018-04-17T00:22:50.401Z,8.77
2018-04-17T00:25:17.053Z,17.50
2018-04-17T00:27:43.616Z,13.63
2018-04-17T00:30:13.836Z,13.70
2018-04-17T00:32:40.750Z,19.10
2018-04-17T00:35:07.457Z,14.77
2018-04-17T00:37:34.111Z,12.20
2018-04-17T00:40:04.669Z,18.47
2018-04-17T00:42:31.219Z,11.63
2018-04-17T00:44:57.893Z,11.17
2018-04-17T00:47:24.458Z,11.50
2018-04-17T00:49:51.713Z,11.27
2018-04-17T00:52:18.472Z,14.10
2018-04-17T00:54:45.098Z,16.17
2018-04-17T00:57:11.657Z,12.77
2018-04-17T00:59:38.301Z,10.80
2018-04-17T01:02:04.936Z,10.27
2018-04-17T01:04:31.658Z,15.43
2018-04-17T01:06:58.241Z,9.10
2018-04-17T01:09:24.902Z,9.27
2018-04-17T01:11:56.161Z,10.07
2018-04-17T01:14:22.805Z,11.07
2018-04-17T01:16:49.377Z,8.20
2018-04-17T01:19:16.074Z,9.87
2018-04-17T01:21:46.431Z,12.13
2018-04-17T01:24:13.141Z,11.30
2018-04-17T01:26:39.914Z,11.00
2018-04-17T01:29:06.569Z,11.67
2018-04-17T01:31:45.945Z,18.17
2018-04-17T01:34:12.522Z,10.70
2018-04-17T01:36:39.183Z,12.03
2018-04-17T01:39:05.825Z,9.53
2018-04-17T01:41:39.118Z,12.23
2018-04-17T01:44:05.785Z,13.27
2018-04-17T01:46:32.446Z,10.40
2018-04-17T01:48:59.045Z,10.63
2018-04-17T01:51:26.931Z,11.57
2018-04-17T01:53:53.649Z,7.93
2018-04-17T01:56:20.288Z,11.90
2018-04-17T01:58:46.937Z,6.87
2018-04-17T02:01:14.642Z,8.97
2018-04-17T02:03:41.320Z,13.87
2018-04-17T02:06:07.877Z,9.87
2018-04-17T02:08:34.531Z,9.00
2018-04-17T02:11:08.073Z,7.13
2018-04-17T02:13:34.675Z,13.13
2018-04-17T02:16:01.394Z,12.27
2018-04-17T02:18:28.095Z,11.17
2018-04-17T02:20:55.910Z,9.67
2018-04-17T02:23:22.585Z,12.67
2018-04-17T02:25:49.186Z,15.70
2018-04-17T02:28:16.204Z,11.00
2018-04-17T02:30:43.942Z,13.40
2018-04-17T02:33:10.590Z,11.80
2018-04-17T02:35:37.157Z,9.70
2018-04-17T02:38:03.716Z,12.80
2018-04-17T02:40:35.590Z,12.93
2018-04-17T02:43:02.278Z,11.83
2018-04-17T02:45:29.057Z,11.70
2018-04-17T02:47:55.761Z,12.70
2018-04-17T02:50:25.647Z,10.60
2018-04-17T02:52:52.304Z,12.10
2018-04-17T02:55:18.946Z,9.20
2018-04-17T02:57:45.612Z,14.23
2018-04-17T03:00:16.170Z,12.93
2018-04-17T03:02:42.840Z,9.93
2018-04-17T03:05:10.299Z,9.67
2018-04-17T03:07:36.989Z,8.37
2018-04-17T03:10:04.809Z,6.10
2018-04-17T03:12:31.991Z,9.87
2018-04-17T03:14:59.103Z,9.20
2018-04-17T03:17:25.812Z,15.00
2018-04-17T03:19:55.664Z,18.30
2018-04-17T03:22:22.337Z,21.20
2018-04-17T03:24:49.061Z,19.10
2018-04-17T03:27:15.804Z,15.10
2018-04-17T03:29:46.003Z,13.20
2018-04-17T03:32:12.586Z,10.13
2018-04-17T03:34:39.353Z,22.47
2018-04-17T03:37:06.013Z,11.40
2018-04-17T03:39:35.749Z,12.83
2018-04-17T03:42:02.457Z,17.90
2018-04-17T03:44:29.091Z,16.77
2018-04-17T03:46:55.828Z,17.77
2018-04-17T03:49:22.477Z,12.50
2018-04-17T03:51:49.005Z,12.63
2018-04-17T03:54:15.593Z,17.57
2018-04-17T03:56:42.209Z,17.57
2018-04-17T03:59:08.797Z,14.00
2018-04-17T04:01:39.418Z,9.07
2018-04-17T04:04:06.196Z,15.50
2018-04-17T04:06:32.710Z,13.53
2018-04-17T04:08:59.435Z,14.53
2018-04-17T04:11:26.401Z,17.30
2018-04-17T04:13:53.059Z,14.27
2018-04-17T04:19:31.126Z,15.85
2018-04-17T04:22:09.715Z,15.20
2018-04-17T04:24:48.245Z,10.67
2018-04-17T04:27:14.918Z,16.37
2018-04-17T04:29:46.707Z,14.27
2018-04-17T04:32:13.330Z,13.33
2018-04-17T04:34:40.014Z,19.97
2018-04-17T04:37:06.738Z,21.00
2018-04-17T04:39:34.465Z,14.83
2018-04-17T04:42:01.158Z,17.83
2018-04-17T04:44:27.871Z,16.87
2018-04-17T04:46:54.470Z,13.87
2018-04-17T04:49:21.055Z,14.00
2018-04-17T04:51:47.726Z,25.10
2018-04-17T04:54:14.405Z,13.97
2018-04-17T04:56:41.051Z,14.80
2018-04-17T04:59:07.729Z,18.30
2018-04-17T05:01:34.479Z,16.73
2018-04-17T05:04:01.254Z,16.43
2018-04-17T05:06:27.898Z,13.37
2018-04-17T05:08:54.537Z,16.57
2018-04-17T05:11:24.138Z,15.87
2018-04-17T05:13:50.901Z,14.60
2018-04-17T05:16:17.598Z,16.83
2018-04-17T05:18:44.172Z,12.47
2018-04-17T05:21:16.375Z,13.30
2018-04-17T05:23:43.022Z,14.57
2018-04-17T05:26:09.527Z,12.60
2018-04-17T05:28:36.211Z,12.17
2018-04-17T05:31:06.482Z,13.87
2018-04-17T05:33:33.155Z,14.03
2018-04-17T05:35:59.837Z,14.57
2018-04-17T05:38:26.424Z,13.90
2018-04-17T05:40:57.002Z,10.43
2018-04-17T05:43:23.608Z,11.70
2018-04-17T05:45:50.325Z,13.43
2018-04-17T05:48:17.026Z,12.97
2018-04-17T05:50:47.405Z,11.97
2018-04-17T05:53:14.126Z,10.77
2018-04-17T05:55:40.851Z,13.47
2018-04-17T05:58:08.405Z,13.03
2018-04-17T06:00:36.209Z,38.53
2018-04-17T06:03:02.832Z,69.43
2018-04-17T06:05:29.610Z,28.20
2018-04-17T06:07:56.338Z,12.27
2018-04-17T06:10:24.281Z,9.50
2018-04-17T06:12:50.965Z,6.83
2018-04-17T06:15:17.669Z,12.60
2018-04-17T06:17:44.322Z,9.57
2018-04-17T06:20:12.260Z,11.93
2018-04-17T06:22:38.883Z,10.70
2018-04-17T06:25:05.454Z,10.70
2018-04-17T06:27:32.297Z,12.30
2018-04-17T06:30:02.561Z,15.80
2018-04-17T06:32:29.558Z,12.27
2018-04-17T06:34:56.261Z,11.43
2018-04-17T06:37:22.989Z,11.90
2018-04-17T06:39:52.451Z,13.47
2018-04-17T06:42:19.154Z,15.73
2018-04-17T06:44:45.785Z,13.20
2018-04-17T06:47:12.453Z,12.57
2018-04-17T06:49:43.901Z,16.60
2018-04-17T06:52:10.570Z,21.07
2018-04-17T06:54:37.133Z,21.07
2018-04-17T06:57:03.709Z,14.83
2018-04-17T06:59:33.907Z,9.70
2018-04-17T07:02:00.526Z,14.77
2018-04-17T07:04:27.066Z,16.73
2018-04-17T07:06:54.043Z,16.40
2018-04-17T07:09:24.497Z,12.93
2018-04-17T07:11:51.150Z,10.53
2018-04-17T07:14:17.816Z,14.63
2018-04-17T07:16:44.472Z,12.40
2018-04-17T07:19:11.254Z,13.10
2018-04-17T07:21:37.853Z,11.50
2018-04-17T07:24:04.562Z,11.10
2018-04-17T07:26:31.205Z,18.70
2018-04-17T07:28:58.874Z,7.63
2018-04-17T07:31:25.547Z,7.03
2018-04-17T07:33:52.116Z,11.17
2018-04-17T07:36:18.763Z,14.20
2018-04-17T07:38:45.485Z,12.40
2018-04-17T07:41:12.396Z,9.77
2018-04-17T07:43:39.213Z,11.33
2018-04-17T07:46:05.869Z,11.30
2018-04-17T07:48:44.546Z,14.70
2018-04-17T07:51:11.235Z,40.73
2018-04-17T07:53:37.832Z,30.73
2018-04-17T07:56:04.434Z,17.73
2018-04-17T07:58:31.036Z,12.47
2018-04-17T08:00:58.801Z,13.70
2018-04-17T08:03:25.416Z,12.63
2018-04-17T08:05:52.063Z,18.43
2018-04-17T08:08:18.647Z,10.43
2018-04-17T08:10:46.249Z,16.10
2018-04-17T08:13:12.868Z,13.30
2018-04-17T08:15:39.601Z,17.40
2018-04-17T08:18:06.123Z,15.73
2018-04-17T08:20:36.298Z,13.60
2018-04-17T08:23:02.849Z,12.97
2018-04-17T08:25:29.494Z,8.77
2018-04-17T08:27:56.258Z,11.23
2018-04-17T08:30:23.908Z,8.67
2018-04-17T08:32:50.555Z,8.33
2018-04-17T08:35:17.243Z,11.53
2018-04-17T08:37:44.022Z,12.27
2018-04-17T08:40:14.540Z,13.20
2018-04-17T08:42:41.273Z,10.00
2018-04-17T08:45:07.921Z,11.30
2018-04-17T08:47:34.553Z,11.20
2018-04-17T08:50:01.233Z,15.07
2018-04-17T08:52:27.869Z,10.33
2018-04-17T08:54:54.513Z,16.13
2018-04-17T08:57:21.134Z,14.40
2018-04-17T08:59:48.808Z,13.27
2018-04-17T09:02:15.377Z,10.47
2018-04-17T09:04:42.113Z,14.83
2018-04-17T09:07:08.781Z,15.17
2018-04-17T09:09:39.233Z,15.00
2018-04-17T09:12:05.777Z,11.93
2018-04-17T09:14:32.430Z,12.07
2018-04-17T09:16:59.010Z,7.57
2018-04-17T09:19:25.575Z,6.07
2018-04-17T09:21:52.785Z,6.87
2018-04-17T09:24:19.529Z,9.13
2018-04-17T09:26:46.187Z,6.77
2018-04-17T09:29:14.367Z,9.30
2018-04-17T09:31:41.026Z,6.80
2018-04-17T09:34:07.762Z,6.77
2018-04-17T09:36:34.449Z,6.10
2018-04-17T09:39:05.578Z,13.73
2018-04-17T09:41:32.389Z,6.67
2018-04-17T09:43:59.040Z,5.90
2018-04-17T09:46:25.652Z,9.33
2018-04-17T09:48:58.718Z,8.17
2018-04-17T09:51:25.412Z,11.93
2018-04-17T09:53:52.149Z,5.07
2018-04-17T09:56:18.805Z,8.23
2018-04-17T09:58:46.510Z,7.77
2018-04-17T10:01:19.889Z,9.27
2018-04-17T10:03:46.623Z,11.70
2018-04-17T10:06:13.297Z,14.73
2018-04-17T10:08:47.904Z,15.67
2018-04-17T10:11:14.521Z,14.47
2018-04-17T10:13:41.085Z,17.20
2018-04-17T10:16:07.808Z,15.53
2018-04-17T10:18:38.329Z,19.63
2018-04-17T10:21:04.899Z,15.03
2018-04-17T10:23:31.633Z,12.23
2018-04-17T10:25:58.199Z,16.53
2018-04-17T10:28:28.525Z,17.43
2018-04-17T10:30:55.725Z,14.27
2018-04-17T10:33:22.410Z,12.53
2018-04-17T10:35:49.081Z,16.03
2018-04-17T10:38:15.825Z,13.17
2018-04-17T10:40:42.478Z,14.47
2018-04-17T10:43:09.032Z,14.57
2018-04-17T10:45:35.602Z,12.90
2018-04-17T10:48:02.161Z,15.93
2018-04-17T10:50:32.249Z,12.47
2018-04-17T10:52:58.854Z,16.27
2018-04-17T10:55:25.502Z,11.50
2018-04-17T10:57:52.066Z,7.93
2018-04-17T11:00:22.693Z,15.33
2018-04-17T11:02:49.349Z,12.13
2018-04-17T11:05:16.073Z,12.10
2018-04-17T11:07:42.674Z,11.03
2018-04-17T11:10:12.441Z,10.07
2018-04-17T11:12:39.149Z,13.50
2018-04-17T11:15:05.790Z,7.67
2018-04-17T11:17:32.413Z,10.97
2018-04-17T11:20:02.558Z,8.23
2018-04-17T11:22:29.110Z,9.40
2018-04-17T11:24:55.733Z,9.90
2018-04-17T11:27:22.453Z,22.10
2018-04-17T11:29:52.682Z,20.50
2018-04-17T11:32:19.268Z,18.33
2018-04-17T11:34:45.980Z,23.50
2018-04-17T11:37:12.578Z,16.97
2018-04-17T11:39:42.639Z,19.73
2018-04-17T11:42:09.316Z,12.37
2018-04-17T11:44:35.933Z,16.27
2018-04-17T11:47:02.426Z,16.20
2018-04-17T11:49:32.621Z,17.27
2018-04-17T11:51:59.253Z,23.97
2018-04-17T11:54:25.930Z,13.10
2018-04-17T11:56:52.554Z,22.07
2018-04-17T11:59:22.943Z,16.67
2018-04-17T12:01:49.609Z,19.77
2018-04-17T12:04:16.319Z,24.57
2018-04-17T12:06:42.970Z,14.80
2018-04-17T12:09:10.731Z,13.20
2018-04-17T12:11:37.362Z,21.70
2018-04-17T12:14:04.003Z,18.33
2018-04-17T12:16:30.564Z,14.97
2018-04-17T12:19:00.798Z,13.83
2018-04-17T12:21:27.566Z,13.50
2018-04-17T12:23:54.197Z,10.33
2018-04-17T12:26:20.870Z,10.93
2018-04-17T12:28:47.541Z,12.47
2018-04-17T12:31:14.190Z,19.27
2018-04-17T12:33:41.204Z,15.33
2018-04-17T12:36:07.757Z,20.37
2018-04-17T12:38:37.570Z,15.87
2018-04-17T12:41:04.192Z,11.40
2018-04-17T12:43:30.838Z,13.27
2018-04-17T12:45:57.435Z,16.83
2018-04-17T12:48:25.342Z,14.23
2018-04-17T12:50:51.975Z,19.50
2018-04-17T12:53:18.605Z,16.27
2018-04-17T12:55:45.333Z,13.53
2018-04-17T12:58:14.910Z,18.93
2018-04-17T13:00:41.538Z,19.53
2018-04-17T13:03:08.256Z,17.77
2018-04-17T13:05:34.925Z,15.87
2018-04-17T13:08:02.542Z,16.60
2018-04-17T13:10:29.168Z,16.77
2018-04-17T13:12:55.812Z,18.37
2018-04-17T13:15:22.534Z,13.57
2018-04-17T13:17:49.225Z,19.77
2018-04-17T13:20:15.801Z,19.87
2018-04-17T13:22:42.577Z,19.40
2018-04-17T13:25:09.262Z,17.77
2018-04-17T13:27:36.043Z,14.80
2018-04-17T13:30:08.269Z,22.60
2018-04-17T13:32:34.952Z,15.47
2018-04-17T13:35:01.603Z,18.60
2018-04-17T13:37:28.341Z,14.23
2018-04-17T13:39:56.193Z,14.93
2018-04-17T13:42:22.880Z,20.00
2018-04-17T13:44:49.453Z,16.57
2018-04-17T13:47:16.204Z,15.97
2018-04-17T13:49:43.915Z,19.60
2018-04-17T13:52:10.399Z,17.10
2018-04-17T13:54:37.035Z,21.07
2018-04-17T13:57:03.590Z,21.67
2018-04-17T13:59:30.409Z,12.57
2018-04-17T14:01:57.127Z,16.77
2018-04-17T14:04:23.858Z,18.47
2018-04-17T14:06:50.567Z,20.60
2018-04-17T14:09:23.334Z,17.47
2018-04-17T14:11:50.050Z,16.50
2018-04-17T14:14:17.218Z,22.33
2018-04-17T14:16:43.934Z,14.83
2018-04-17T14:19:13.914Z,18.40
2018-04-17T14:21:40.622Z,20.47
2018-04-17T14:24:07.240Z,18.93
2018-04-17T14:26:33.925Z,19.83
2018-04-17T14:29:04.137Z,15.57
2018-04-17T14:31:30.776Z,17.43
2018-04-17T14:33:57.447Z,15.47
2018-04-17T14:36:24.136Z,18.87
2018-04-17T14:38:54.765Z,20.50
2018-04-17T14:41:21.473Z,15.17
2018-04-17T14:43:48.166Z,16.33
2018-04-17T14:46:14.738Z,16.60
2018-04-17T14:48:44.878Z,17.63
2018-04-17T14:51:11.475Z,26.57
2018-04-17T14:53:38.124Z,19.17
2018-04-17T14:56:04.734Z,15.67
2018-04-17T14:58:35.338Z,21.23
2018-04-17T15:01:01.969Z,18.97
2018-04-17T15:03:28.713Z,21.40
2018-04-17T15:05:55.356Z,22.60
2018-04-17T15:08:29.136Z,19.00
2018-04-17T15:10:55.742Z,23.33
2018-04-17T15:13:22.418Z,23.27
2018-04-17T15:15:49.118Z,21.10
2018-04-17T15:18:19.422Z,19.23
2018-04-17T15:20:46.165Z,17.37
2018-04-17T15:23:12.821Z,20.00
2018-04-17T15:25:39.382Z,25.43
2018-04-17T15:28:12.527Z,28.80
2018-04-17T15:30:39.228Z,27.80
2018-04-17T15:33:05.731Z,21.00
2018-04-17T15:35:32.494Z,21.33
2018-04-17T15:37:59.233Z,24.60
2018-04-17T15:40:25.926Z,44.43
2018-04-17T15:42:52.575Z,22.93
2018-04-17T15:45:19.090Z,25.07
2018-04-17T15:47:49.561Z,22.07
2018-04-17T15:50:16.241Z,22.97
2018-04-17T15:52:42.872Z,29.27
2018-04-17T15:55:10.224Z,22.93
2018-04-17T15:57:37.212Z,18.53
2018-04-17T16:00:03.755Z,20.27
2018-04-17T16:02:30.522Z,25.53
2018-04-17T16:04:57.275Z,16.93
2018-04-17T16:07:24.738Z,18.30
2018-04-17T16:09:51.330Z,13.93
2018-04-17T16:12:17.982Z,23.47
2018-04-17T16:14:44.431Z,19.60
2018-04-17T16:17:11.147Z,19.90
2018-04-17T16:19:40.966Z,23.70
2018-04-17T16:22:07.626Z,23.50
2018-04-17T16:24:34.331Z,17.63
2018-04-17T16:27:01.083Z,22.13
2018-04-17T16:29:31.152Z,18.13
2018-04-17T16:31:57.806Z,20.50
2018-04-17T16:34:24.386Z,25.87
2018-04-17T16:36:51.134Z,18.10
2018-04-17T16:39:21.310Z,17.50
2018-04-17T16:41:48.058Z,23.07
2018-04-17T16:44:14.798Z,19.00
2018-04-17T16:46:41.396Z,28.73
2018-04-17T16:49:08.357Z,25.67
2018-04-17T16:51:35.032Z,20.83
2018-04-17T16:54:01.729Z,25.47
2018-04-17T16:56:28.439Z,25.53
2018-04-17T16:58:56.383Z,24.70
2018-04-17T17:01:23.087Z,16.93
2018-04-17T17:03:49.713Z,16.07
2018-04-17T17:06:17.254Z,21.80
2018-04-17T17:08:47.005Z,16.23
2018-04-17T17:11:14.259Z,16.30
2018-04-17T17:13:40.817Z,14.70
2018-04-17T17:16:07.564Z,18.10
2018-04-17T17:18:37.309Z,14.37
2018-04-17T17:21:04.187Z,16.20
2018-04-17T17:23:30.943Z,16.50
2018-04-17T17:25:57.701Z,18.97
2018-04-17T17:28:25.365Z,17.63
2018-04-17T17:30:51.956Z,18.03
2018-04-17T17:33:18.768Z,18.07
2018-04-17T17:35:45.429Z,18.93
2018-04-17T17:38:13.206Z,16.40
2018-04-17T17:40:39.866Z,15.37
2018-04-17T17:43:06.990Z,19.67
2018-04-17T17:45:33.660Z,27.00
2018-04-17T17:48:02.371Z,23.13
2018-04-17T17:50:29.149Z,24.10
2018-04-17T17:52:55.876Z,20.30
2018-04-17T17:55:22.502Z,26.43
2018-04-17T17:57:50.238Z,24.53
2018-04-17T18:00:17.009Z,20.17
2018-04-17T18:02:43.742Z,25.13
2018-04-17T18:05:10.331Z,16.30
2018-04-17T18:07:37.694Z,23.37
2018-04-17T18:10:04.293Z,16.30
2018-04-17T18:12:31.016Z,22.50
2018-04-17T18:14:57.628Z,21.90
2018-04-17T18:17:25.403Z,23.33
2018-04-17T18:19:51.973Z,26.20
2018-04-17T18:22:19.194Z,22.70
2018-04-17T18:24:45.853Z,22.30
2018-04-17T18:27:12.538Z,21.50
2018-04-17T18:29:39.186Z,19.70
2018-04-17T18:32:07.344Z,17.90
2018-04-17T18:34:33.970Z,18.47
2018-04-17T18:37:01.551Z,20.87
2018-04-17T18:39:28.298Z,13.37
2018-04-17T18:41:55.035Z,15.23
2018-04-17T18:44:21.754Z,12.17
2018-04-17T18:46:48.379Z,10.30
2018-04-17T18:49:16.114Z,17.30
2018-04-17T18:51:42.699Z,16.03
2018-04-17T18:54:09.437Z,15.70
2018-04-17T18:56:36.062Z,12.90
2018-04-17T18:59:09.143Z,16.37
2018-04-17T19:01:35.768Z,14.33
2018-04-17T19:04:02.442Z,17.97
2018-04-17T19:06:29.213Z,14.20
2018-04-17T19:08:59.749Z,17.93
2018-04-17T19:11:26.323Z,16.10
2018-04-17T19:13:52.996Z,14.37
2018-04-17T19:16:19.587Z,17.00
2018-04-17T19:18:51.146Z,20.63
2018-04-17T19:21:17.722Z,17.13
2018-04-17T19:23:45.294Z,18.73
2018-04-17T19:26:11.935Z,18.63
2018-04-17T19:28:38.716Z,12.43
2018-04-17T19:31:05.447Z,15.63
2018-04-17T19:33:32.135Z,15.40
2018-04-17T19:35:58.719Z,17.90
2018-04-17T19:38:28.582Z,13.03
2018-04-17T19:40:55.266Z,16.13
2018-04-17T19:43:21.963Z,20.43
2018-04-17T19:45:48.613Z,16.70
2018-04-17T19:48:16.350Z,16.60
2018-04-17T19:50:42.987Z,16.77
2018-04-17T19:53:09.674Z,18.70
2018-04-17T19:55:36.331Z,15.93
2018-04-17T19:58:16.345Z,12.50
2018-04-17T20:00:42.933Z,9.80
2018-04-17T20:03:09.656Z,13.13
2018-04-17T20:05:36.271Z,11.97
2018-04-17T20:08:05.939Z,17.37
2018-04-17T20:10:32.771Z,20.73
2018-04-17T20:12:59.514Z,14.83
2018-04-17T20:15:26.234Z,18.87
2018-04-17T20:17:53.006Z,17.17
2018-04-17T20:20:19.763Z,15.30
2018-04-17T20:22:46.460Z,21.57
2018-04-17T20:25:13.139Z,25.37
2018-04-17T20:27:39.792Z,24.67
2018-04-17T20:30:06.308Z,23.57
2018-04-17T20:32:33.062Z,28.00
2018-04-17T20:34:59.786Z,24.47
2018-04-17T20:37:33.130Z,22.70
2018-04-17T20:39:59.811Z,30.23
2018-04-17T20:42:27.091Z,26.83
2018-04-17T20:44:53.702Z,27.97
2018-04-17T20:47:27.291Z,25.97
2018-04-17T20:49:53.938Z,30.50
2018-04-17T20:52:20.718Z,23.20
2018-04-17T20:54:47.961Z,22.13
2018-04-17T20:57:15.609Z,28.30
2018-04-17T20:59:42.270Z,29.10
2018-04-17T21:02:08.921Z,28.80
2018-04-17T21:04:35.550Z,20.20
2018-04-17T21:07:03.269Z,25.57
2018-04-17T21:09:29.898Z,21.17
2018-04-17T21:11:56.603Z,28.77
2018-04-17T21:14:23.262Z,25.80
2018-04-17T21:16:51.244Z,25.17
2018-04-17T21:19:17.983Z,18.40
2018-04-17T21:21:44.550Z,19.70
2018-04-17T21:24:11.164Z,16.90
2018-04-17T21:26:37.866Z,21.73
2018-04-17T21:29:04.502Z,17.33
2018-04-17T21:31:31.205Z,19.63
2018-04-17T21:33:57.910Z,17.40
2018-04-17T21:36:24.554Z,24.57
2018-04-17T21:38:52.420Z,15.93
2018-04-17T21:41:19.065Z,19.13
2018-04-17T21:43:45.807Z,18.30
2018-04-17T21:46:12.486Z,18.63
2018-04-17T21:48:45.726Z,18.33
2018-04-17T21:51:12.319Z,15.70
2018-04-17T21:53:38.889Z,18.60
2018-04-17T21:56:05.537Z,16.63
2018-04-17T21:58:36.062Z,14.97
2018-04-17T22:01:02.673Z,16.57
2018-04-17T22:03:29.249Z,19.77
2018-04-17T22:05:55.923Z,23.30
2018-04-17T22:08:23.506Z,24.53
2018-04-17T22:10:50.213Z,18.33
2018-04-17T22:13:16.948Z,17.30
2018-04-17T22:15:43.654Z,14.23
2018-04-17T22:18:13.769Z,15.20
2018-04-17T22:20:40.436Z,14.73
2018-04-17T22:23:07.257Z,16.53
2018-04-17T22:25:34.076Z,18.27
2018-04-17T22:28:04.405Z,12.70
2018-04-17T22:30:31.127Z,15.77
2018-04-17T22:32:57.830Z,13.53
2018-04-17T22:35:24.559Z,18.07
2018-04-17T22:38:01.142Z,20.60
2018-04-17T22:40:27.767Z,16.40
2018-04-17T22:42:54.505Z,12.07
2018-04-17T22:45:21.018Z,17.27
2018-04-17T22:47:53.817Z,19.30
2018-04-17T22:50:20.863Z,12.97
2018-04-17T22:52:47.438Z,14.97
2018-04-17T22:55:14.625Z,18.83
2018-04-17T22:57:46.926Z,15.90
2018-04-17T23:00:13.505Z,17.00
2018-04-17T23:02:40.270Z,18.07
2018-04-17T23:05:06.941Z,13.17
2018-04-17T23:07:38.029Z,14.90
2018-04-17T23:10:04.605Z,15.00
2018-04-17T23:12:31.326Z,15.47
2018-04-17T23:14:58.033Z,16.27
2018-04-17T23:17:25.849Z,17.27
2018-04-17T23:19:53.025Z,16.67
2018-04-17T23:22:19.720Z,17.50
2018-04-17T23:24:46.534Z,17.97
2018-04-17T23:27:16.314Z,14.33
2018-04-17T23:29:43.037Z,20.03
2018-04-17T23:32:09.629Z,18.80
2018-04-17T23:34:36.303Z,10.87
2018-04-17T23:37:06.724Z,17.47
2018-04-17T23:39:33.295Z,20.83
2018-04-17T23:42:00.029Z,12.97
2018-04-17T23:44:26.581Z,13.17
2018-04-17T23:46:59.865Z,13.70
2018-04-17T23:49:26.532Z,12.30
2018-04-17T23:51:53.258Z,8.40
2018-04-17T23:54:19.901Z,12.43
2018-04-17T23:56:53.832Z,10.80
2018-04-17T23:59:20.458Z,10.83
